Time;durP1;ratioP1;P1;durP2;ratioP2;P2;SDS_P1;SDS_P2;PMS_P1;PMS_P2;Temp;Humidity;BMP_temperature;BMP_pressure;BME280_temperature;BME280_humidity;BME280_pressure;Samples;Min_cycle;Max_cycle;Signal;HPM_P1;HPM_P2
2022/09/24 00:01:39;;;;;;;17.63;3.65;;;12.00;99.90;;;;;;5033842;28;20049;-72
2022/09/24 00:04:10;;;;;;;18.20;4.15;;;11.30;99.90;;;;;;5035114;28;20042;-73
2022/09/24 00:06:47;;;;;;;14.35;3.95;;;11.20;99.90;;;;;;5035004;28;20380;-73
2022/09/24 00:09:20;;;;;;;15.23;3.83;;;11.20;99.90;;;;;;5033853;28;20200;-73
2022/09/24 00:11:50;;;;;;;19.05;3.90;;;11.10;99.90;;;;;;5034970;28;20046;-73
2022/09/24 00:14:17;;;;;;;16.15;3.83;;;11.10;99.90;;;;;;5034078;28;20064;-73
2022/09/24 00:16:45;;;;;;;22.65;4.78;;;11.00;99.90;;;;;;5000999;28;20049;-73
2022/09/24 00:19:13;;;;;;;13.18;4.10;;;10.90;99.90;;;;;;5034711;28;20052;-73
2022/09/24 00:21:42;;;;;;;10.43;4.15;;;10.90;99.90;;;;;;5016848;28;20041;-73
2022/09/24 00:26:48;;;;;;;16.88;4.00;;;10.90;99.90;;;;;;5034841;28;20372;-73
2022/09/24 00:27:05;;;;;;;17.02;4.10;;;10.80;99.90;;;;;;5034924;28;20046;-73
2022/09/24 00:29:34;;;;;;;14.13;4.03;;;10.70;99.90;;;;;;5017132;28;20048;-73
2022/09/24 00:32:03;;;;;;;15.55;4.10;;;10.70;99.90;;;;;;5034570;28;20068;-72
2022/09/24 00:34:31;;;;;;;17.65;4.43;;;10.70;99.90;;;;;;5016670;28;20060;-73
2022/09/24 00:36:59;;;;;;;22.15;4.78;;;10.60;99.90;;;;;;5035097;28;20349;-73
2022/09/24 00:39:27;;;;;;;19.33;4.75;;;10.50;99.90;;;;;;5034565;28;20042;-72
2022/09/24 00:41:54;;;;;;;16.05;4.90;;;10.50;99.90;;;;;;5033293;28;20048;-72
2022/09/24 00:44:43;;;;;;;22.52;5.10;;;10.50;99.90;;;;;;5017740;28;20045;-73
2022/09/24 00:47:48;;;;;;;20.25;4.90;;;10.50;99.90;;;;;;5016560;28;20483;-72
2022/09/24 00:50:21;;;;;;;24.08;5.20;;;10.50;99.90;;;;;;5034622;28;20076;-72
2022/09/24 00:53:02;;;;;;;23.73;6.07;;;10.40;99.90;;;;;;5034872;28;20053;-72
2022/09/24 00:55:32;;;;;;;21.98;5.85;;;10.40;99.90;;;;;;5016074;28;20357;-72
2022/09/24 00:58:04;;;;;;;23.05;6.45;;;10.40;99.90;;;;;;5034775;28;20053;-72
2022/09/24 01:00:33;;;;;;;22.02;6.40;;;10.40;99.90;;;;;;5033205;28;20064;-73
2022/09/24 01:03:08;;;;;;;19.92;6.20;;;10.40;99.90;;;;;;5034314;28;20042;-72
2022/09/24 01:05:36;;;;;;;27.05;6.40;;;10.40;99.90;;;;;;5017329;28;20046;-72
2022/09/24 01:08:06;;;;;;;27.73;6.88;;;10.40;99.90;;;;;;5033195;28;20049;-72
2022/09/24 01:10:46;;;;;;;19.08;6.35;;;10.40;99.90;;;;;;5034572;28;20049;-73
2022/09/24 01:13:47;;;;;;;18.83;6.18;;;10.40;99.90;;;;;;5034498;28;20049;-72
2022/09/24 01:16:34;;;;;;;28.85;7.28;;;10.40;99.90;;;;;;5034649;28;20053;-72
2022/09/24 01:19:38;;;;;;;24.75;6.32;;;10.40;99.90;;;;;;5034239;28;20056;-72
2022/09/24 01:22:33;;;;;;;23.63;6.82;;;10.40;99.90;;;;;;5015948;28;20165;-72
2022/09/24 01:25:25;;;;;;;21.60;6.72;;;10.30;99.90;;;;;;5034310;28;20042;-73
2022/09/24 01:28:30;;;;;;;26.45;7.30;;;10.30;99.90;;;;;;5019507;28;20045;-72
2022/09/24 01:31:09;;;;;;;25.45;7.85;;;10.30;99.90;;;;;;5038275;28;20049;-73
2022/09/24 01:33:37;;;;;;;27.17;6.93;;;10.30;99.90;;;;;;5020901;28;20053;-72
2022/09/24 01:36:07;;;;;;;22.10;8.18;;;11.60;99.90;;;;;;5003112;28;20057;-72
2022/09/24 01:38:41;;;;;;;25.00;8.40;;;10.20;99.90;;;;;;5038302;28;20072;-72
2022/09/24 01:41:11;;;;;;;30.48;8.07;;;11.30;99.90;;;;;;5036988;28;20045;-72
2022/09/24 01:43:38;;;;;;;24.88;7.18;;;10.20;99.90;;;;;;5037586;28;20464;-72
2022/09/24 01:46:06;;;;;;;23.65;6.93;;;10.10;99.90;;;;;;5020163;28;20041;-72
2022/09/24 01:48:38;;;;;;;26.20;6.82;;;10.10;99.90;;;;;;5019148;28;20061;-72
2022/09/24 01:51:15;;;;;;;23.00;7.65;;;10.10;99.90;;;;;;5020725;28;20063;-73
2022/09/24 01:53:48;;;;;;;22.55;7.00;;;10.10;99.90;;;;;;5037743;28;20453;-72
2022/09/24 01:56:27;;;;;;;27.35;7.45;;;10.10;99.90;;;;;;5037278;28;20472;-72
2022/09/24 01:59:02;;;;;;;29.23;7.43;;;10.00;99.90;;;;;;5037541;28;20361;-72
2022/09/24 02:02:00;;;;;;;25.38;7.00;;;10.00;99.90;;;;;;5036567;28;20041;-72
2022/09/24 02:04:32;;;;;;;25.55;7.53;;;10.00;99.90;;;;;;5037132;28;20045;-72
2022/09/24 02:07:04;;;;;;;24.88;8.18;;;9.90;99.90;;;;;;5020036;28;20041;-72
2022/09/24 02:09:33;;;;;;;25.90;8.55;;;9.90;99.90;;;;;;5036317;28;20053;-73
2022/09/24 02:12:16;;;;;;;32.55;9.30;;;9.90;99.90;;;;;;5020038;28;20056;-72
2022/09/24 02:14:56;;;;;;;28.55;8.27;;;9.90;99.90;;;;;;5036179;28;20049;-72
2022/09/24 02:17:26;;;;;;;30.88;8.48;;;9.80;99.90;;;;;;5037160;28;20068;-72
2022/09/24 02:19:57;;;;;;;29.98;9.10;;;9.90;99.90;;;;;;5037114;28;20050;-72
2022/09/24 02:22:25;;;;;;;31.92;8.82;;;9.90;99.90;;;;;;5035918;28;20360;-73
2022/09/24 02:24:56;;;;;;;30.30;9.43;;;9.90;99.90;;;;;;5020095;28;20057;-73
2022/09/24 02:27:27;;;;;;;31.73;9.68;;;9.80;99.90;;;;;;5035932;28;20037;-73
2022/09/24 02:29:57;;;;;;;43.25;12.35;;;9.80;99.90;;;;;;5019711;28;20042;-72
2022/09/24 02:32:29;;;;;;;39.10;11.77;;;9.80;99.90;;;;;;5036591;28;20392;-73
2022/09/24 02:35:02;;;;;;;37.33;13.20;;;9.90;99.90;;;;;;5035616;28;20064;-73
2022/09/24 02:37:35;;;;;;;37.72;14.18;;;10.50;99.90;;;;;;5036159;28;20064;-72
2022/09/24 02:40:06;;;;;;;38.67;13.43;;;10.20;99.90;;;;;;5019528;28;20079;-73
2022/09/24 02:42:34;;;;;;;40.17;14.15;;;10.40;99.90;;;;;;5035338;28;20056;-72
2022/09/24 02:45:03;;;;;;;39.97;15.50;;;10.50;99.90;;;;;;5019385;28;20042;-73
2022/09/24 02:47:32;;;;;;;36.60;15.45;;;10.70;99.90;;;;;;5017930;28;20380;-73
2022/09/24 02:49:59;;;;;;;54.78;20.73;;;10.80;99.90;;;;;;5036457;28;20050;-73
2022/09/24 02:52:27;;;;;;;50.42;23.55;;;10.90;99.90;;;;;;5019348;28;20111;-73
2022/09/24 02:54:54;;;;;;;59.45;25.40;;;11.00;99.90;;;;;;5035374;28;20053;-73
2022/09/24 02:57:22;;;;;;;49.25;23.90;;;11.10;99.90;;;;;;5036427;28;20046;-73
2022/09/24 02:59:49;;;;;;;50.20;23.17;;;11.10;99.90;;;;;;5036546;28;20049;-73
2022/09/24 03:02:18;;;;;;;56.70;23.80;;;11.20;99.90;;;;;;5035052;28;20099;-73
2022/09/24 03:04:46;;;;;;;51.92;23.15;;;11.20;99.90;;;;;;5019095;28;20494;-73
2022/09/24 03:07:13;;;;;;;50.83;23.50;;;11.30;99.90;;;;;;5034955;28;20456;-73
2022/09/24 03:09:41;;;;;;;50.65;21.67;;;11.50;99.90;;;;;;5036134;28;20376;-73
2022/09/24 03:12:08;;;;;;;54.30;22.88;;;11.60;99.90;;;;;;5036092;28;20061;-73
2022/09/24 03:14:36;;;;;;;51.58;20.35;;;11.50;99.90;;;;;;5034824;28;20049;-73
2022/09/24 03:17:03;;;;;;;51.13;21.58;;;11.40;99.90;;;;;;5035819;28;20057;-73
2022/09/24 03:19:31;;;;;;;53.45;22.25;;;11.40;99.90;;;;;;5036006;28;20052;-73
2022/09/24 03:21:58;;;;;;;61.50;22.15;;;11.40;99.90;;;;;;5017459;28;20400;-73
2022/09/24 03:24:26;;;;;;;58.85;22.80;;;11.50;99.90;;;;;;5035812;28;20384;-72
2022/09/24 03:26:53;;;;;;;54.60;22.38;;;11.50;99.90;;;;;;5018566;28;20060;-73
2022/09/24 03:30:58;;;;;;;53.00;20.85;;;11.50;99.90;;;;;;5034525;28;20041;-73
2022/09/24 03:32:08;;;;;;;49.40;23.17;;;11.50;99.90;;;;;;5035735;28;20050;-73
2022/09/24 03:34:36;;;;;;;52.92;23.50;;;11.60;99.90;;;;;;5000994;28;20476;-73
2022/09/24 03:37:04;;;;;;;59.25;23.90;;;11.60;99.90;;;;;;5035657;28;20056;-73
2022/09/24 03:39:31;;;;;;;60.55;23.83;;;11.70;99.90;;;;;;5036124;28;20053;-73
2022/09/24 03:41:59;;;;;;;49.60;21.90;;;11.70;99.90;;;;;;5034239;28;20124;-72
2022/09/24 03:44:27;;;;;;;51.15;22.38;;;11.70;99.90;;;;;;5035341;28;20037;-73
2022/09/24 03:46:55;;;;;;;41.50;18.73;;;11.70;99.90;;;;;;5035659;28;20361;-72
2022/09/24 03:49:24;;;;;;;40.35;19.50;;;11.80;99.90;;;;;;5033763;28;20045;-73
2022/09/24 03:51:52;;;;;;;43.72;18.65;;;11.80;99.90;;;;;;5018420;28;20049;-73
2022/09/24 03:54:19;;;;;;;40.92;17.58;;;11.80;99.90;;;;;;5034408;28;20049;-72
2022/09/24 03:56:47;;;;;;;39.65;16.67;;;11.80;99.90;;;;;;5035509;28;20057;-73
2022/09/24 03:59:14;;;;;;;37.38;16.08;;;11.90;99.90;;;;;;5035329;28;20468;-72
2022/09/24 04:01:42;;;;;;;36.75;16.02;;;11.80;99.90;;;;;;5033881;28;20053;-73
2022/09/24 04:04:15;;;;;;;32.33;15.50;;;11.90;99.90;;;;;;5035218;28;20050;-73
2022/09/24 04:06:43;;;;;;;33.42;15.18;;;11.80;99.90;;;;;;5035124;28;20075;-73
2022/09/24 04:09:11;;;;;;;31.67;15.27;;;11.80;99.90;;;;;;5000613;28;20060;-72
2022/09/24 04:11:38;;;;;;;34.38;14.65;;;11.90;99.90;;;;;;5035054;28;20052;-73
2022/09/24 04:14:06;;;;;;;30.02;14.30;;;11.90;99.90;;;;;;5034071;28;20041;-73
2022/09/24 04:16:33;;;;;;;32.20;14.10;;;11.90;99.90;;;;;;5017653;28;20064;-72
2022/09/24 04:19:01;;;;;;;28.25;12.70;;;11.90;99.90;;;;;;5035091;28;20048;-72
2022/09/24 04:21:29;;;;;;;37.30;13.20;;;11.90;99.90;;;;;;5033793;28;20474;-72
2022/09/24 04:23:56;;;;;;;32.85;12.32;;;12.00;99.90;;;;;;5035122;28;20598;-72
2022/09/24 04:26:24;;;;;;;28.27;11.98;;;12.00;99.90;;;;;;5034887;28;20045;-73
2022/09/24 04:28:52;;;;;;;34.50;12.15;;;12.00;99.90;;;;;;5033552;28;20056;-72
2022/09/24 04:31:19;;;;;;;25.53;12.07;;;12.00;99.90;;;;;;5001743;28;20057;-73
2022/09/24 04:33:47;;;;;;;25.77;12.30;;;12.10;99.90;;;;;;5034652;28;20282;-72
2022/09/24 04:36:15;;;;;;;31.43;12.33;;;10.30;99.90;;;;;;5034680;28;20049;-73
2022/09/24 04:38:45;;;;;;;26.05;12.50;;;12.20;99.90;;;;;;5017386;28;20290;-73
2022/09/24 04:41:14;;;;;;;30.48;12.25;;;12.30;99.90;;;;;;5033568;28;20468;-73
2022/09/24 04:43:45;;;;;;;36.92;12.25;;;12.20;99.90;;;;;;5016990;28;20383;-72
2022/09/24 04:46:13;;;;;;;22.10;10.95;;;12.20;99.90;;;;;;5034502;28;20147;-72
2022/09/24 04:48:40;;;;;;;26.42;11.65;;;12.20;99.90;;;;;;5016295;28;20060;-72
2022/09/24 04:51:09;;;;;;;24.25;11.20;;;12.20;99.90;;;;;;5017654;28;20368;-73
2022/09/24 04:53:36;;;;;;;24.73;11.35;;;12.20;99.90;;;;;;5034443;28;20058;-73
2022/09/24 04:56:10;;;;;;;28.38;11.50;;;12.20;99.90;;;;;;5033217;28;20049;-73
2022/09/24 04:58:38;;;;;;;26.65;11.73;;;12.10;99.90;;;;;;5034426;28;20465;-74
2022/09/24 05:01:06;;;;;;;31.25;11.82;;;12.10;99.90;;;;;;5034725;28;20049;-73
2022/09/24 05:03:34;;;;;;;30.23;12.93;;;12.10;99.90;;;;;;5050819;28;20044;-73
2022/09/24 05:06:01;;;;;;;;;;;12.10;99.90;;;;;;5058709;28;20486;-73
2022/09/24 05:08:29;;;;;;;29.67;12.40;;;12.20;99.90;;;;;;5039602;28;19920;-72
2022/09/24 05:10:56;;;;;;;31.60;12.23;;;12.10;99.90;;;;;;5058157;28;20056;-73
2022/09/24 05:13:24;;;;;;;24.55;11.73;;;12.10;99.90;;;;;;5040918;28;20045;-73
2022/09/24 05:15:51;;;;;;;26.85;12.23;;;12.10;99.90;;;;;;5057164;28;20041;-73
2022/09/24 05:18:19;;;;;;;29.52;13.10;;;12.10;99.90;;;;;;5058318;28;20060;-73
2022/09/24 05:20:47;;;;;;;31.67;12.52;;;12.00;99.90;;;;;;5056873;28;20045;-73
2022/09/24 05:23:14;;;;;;;29.35;13.68;;;12.50;99.90;;;;;;5057790;28;20040;-73
2022/09/24 05:28:34;;;;;;;39.55;13.80;;;11.60;99.90;;;;;;5036262;28;20053;-73
2022/09/24 05:31:01;;;;;;;27.75;13.98;;;11.50;99.90;;;;;;5040318;28;20356;-73
2022/09/24 05:33:29;;;;;;;25.65;14.70;;;11.30;99.90;;;;;;5040122;28;20048;-73
2022/09/24 05:35:56;;;;;;;35.88;14.35;;;11.20;99.90;;;;;;5039197;28;20040;-73
2022/09/24 05:38:24;;;;;;;36.20;14.07;;;11.10;99.90;;;;;;5058553;28;20052;-73
2022/09/24 05:40:51;;;;;;;33.22;13.68;;;11.00;99.90;;;;;;5039389;28;20059;-73
2022/09/24 05:43:19;;;;;;;33.25;12.00;;;10.90;99.90;;;;;;5057261;28;20055;-73
2022/09/24 05:45:51;;;;;;;35.22;13.00;;;10.80;99.90;;;;;;5057729;28;20504;-73
2022/09/24 05:48:20;;;;;;;33.15;12.40;;;10.70;99.90;;;;;;5056473;28;20128;-73
2022/09/24 05:50:47;;;;;;;29.35;11.63;;;10.70;99.90;;;;;;5057414;28;20052;-73
2022/09/24 05:53:15;;;;;;;36.25;11.50;;;10.50;99.90;;;;;;5040051;28;20364;-72
2022/09/24 05:55:42;;;;;;;32.58;12.32;;;10.40;99.90;;;;;;5056093;28;20049;-73
2022/09/24 05:58:11;;;;;;;33.55;12.45;;;10.30;99.90;;;;;;5040135;28;20049;-73
2022/09/24 06:00:39;;;;;;;26.48;12.18;;;10.30;99.90;;;;;;5056221;28;20060;-72
2022/09/24 06:03:11;;;;;;;32.70;12.30;;;10.60;99.90;;;;;;5039739;28;20049;-72
2022/09/24 06:05:47;;;;;;;34.40;13.32;;;10.20;99.90;;;;;;5057659;28;20294;-73
2022/09/24 06:08:16;;;;;;;33.17;13.13;;;10.10;99.90;;;;;;5056033;28;20386;-73
2022/09/24 06:10:46;;;;;;;32.08;12.45;;;10.10;99.90;;;;;;5039871;28;20368;-73
2022/09/24 06:13:17;;;;;;;34.05;12.98;;;10.00;99.90;;;;;;5022988;28;20041;-73
2022/09/24 06:15:45;;;;;;;33.08;12.20;;;10.00;99.90;;;;;;5038608;28;20071;-73
2022/09/24 06:18:13;;;;;;;34.17;13.00;;;10.00;99.90;;;;;;5056919;28;20055;-73
2022/09/24 06:20:41;;;;;;;32.17;12.35;;;9.90;99.90;;;;;;5055791;28;20052;-73
2022/09/24 06:23:08;;;;;;;42.53;12.82;;;9.90;99.90;;;;;;5039552;28;20056;-73
2022/09/24 06:25:36;;;;;;;31.42;13.40;;;9.90;99.90;;;;;;5056939;28;20375;-73
2022/09/24 06:28:04;;;;;;;30.70;14.27;;;9.90;99.90;;;;;;5055619;28;20045;-73
2022/09/24 06:30:40;;;;;;;33.33;15.20;;;9.90;99.90;;;;;;5056614;28;20479;-73
2022/09/24 06:33:10;;;;;;;32.50;14.80;;;10.00;99.90;;;;;;5057097;28;20052;-72
2022/09/24 06:35:40;;;;;;;30.10;14.52;;;10.10;99.90;;;;;;5055651;28;20472;-73
2022/09/24 06:38:11;;;;;;;32.53;13.90;;;10.20;99.90;;;;;;5056625;28;20060;-72
2022/09/24 06:40:40;;;;;;;30.13;13.68;;;10.20;99.90;;;;;;5055943;28;20060;-73
2022/09/24 06:43:09;;;;;;;;;;;10.30;99.90;;;;;;5039552;28;20471;-72
2022/09/24 06:45:37;;;;;;;24.35;12.35;;;10.30;99.90;;;;;;5057142;28;20291;-73
2022/09/24 06:48:05;;;;;;;32.72;13.00;;;10.40;99.90;;;;;;5055475;28;20064;-73
2022/09/24 06:50:34;;;;;;;29.58;12.98;;;10.40;99.90;;;;;;5056331;28;20045;-73
2022/09/24 06:53:05;;;;;;;29.38;12.10;;;11.40;99.90;;;;;;5056335;28;20082;-73
2022/09/24 06:55:33;;;;;;;31.13;12.55;;;10.50;99.90;;;;;;5055103;28;20052;-72
2022/09/24 06:58:07;;;;;;;21.90;11.45;;;11.30;99.90;;;;;;5056098;28;20475;-72
2022/09/24 07:00:35;;;;;;;29.33;11.00;;;10.60;99.90;;;;;;5055436;28;20049;-73
2022/09/24 07:03:04;;;;;;;25.02;11.18;;;10.70;99.90;;;;;;5055905;28;20049;-73
2022/09/24 07:05:32;;;;;;;29.48;10.48;;;10.80;99.90;;;;;;5055989;28;20045;-73
2022/09/24 07:08:03;;;;;;;23.40;10.40;;;10.90;99.90;;;;;;5021540;28;20060;-73
2022/09/24 07:10:31;;;;;;;28.63;11.02;;;11.10;99.90;;;;;;5055995;28;20363;-73
2022/09/24 07:12:58;;;;;;;27.80;11.55;;;11.10;99.90;;;;;;5055928;28;20379;-73
2022/09/24 07:15:26;;;;;;;28.75;11.60;;;11.20;99.90;;;;;;5037591;28;20045;-72
2022/09/24 07:17:55;;;;;;;28.02;12.75;;;11.30;99.90;;;;;;5055859;28;20067;-73
2022/09/24 07:20:23;;;;;;;28.77;11.10;;;11.50;99.90;;;;;;5038495;28;20052;-73
2022/09/24 07:22:54;;;;;;;22.27;10.40;;;11.50;99.90;;;;;;5038032;28;20048;-73
2022/09/24 07:25:22;;;;;;;22.33;10.57;;;11.50;99.90;;;;;;5055362;28;20048;-73
2022/09/24 07:27:50;;;;;;;28.70;11.35;;;11.50;99.90;;;;;;5054666;28;20475;-73
2022/09/24 07:30:17;;;;;;;25.02;10.15;;;11.50;99.90;;;;;;5055667;28;20360;-73
2022/09/24 07:32:45;;;;;;;23.17;10.95;;;11.60;99.90;;;;;;5055784;28;20048;-73
2022/09/24 07:35:13;;;;;;;22.85;11.00;;;11.50;99.90;;;;;;5054775;28;20041;-73
2022/09/24 07:37:40;;;;;;;22.80;10.65;;;11.50;99.90;;;;;;5020953;28;20060;-74
2022/09/24 07:40:08;;;;;;;23.67;10.65;;;11.50;99.90;;;;;;5037748;28;20361;-74
2022/09/24 07:42:37;;;;;;;16.88;10.25;;;11.60;99.90;;;;;;5053814;28;20052;-74
2022/09/24 07:45:09;;;;;;;25.55;10.00;;;11.60;99.90;;;;;;5021263;28;20041;-73
2022/09/24 07:47:56;;;;;;;20.58;10.15;;;11.70;99.90;;;;;;5053924;28;20056;-74
2022/09/24 07:50:24;;;;;;;26.27;10.40;;;11.40;99.90;;;;;;5055048;28;20048;-74
2022/09/24 07:52:53;;;;;;;27.92;10.30;;;11.80;99.90;;;;;;5054636;28;20052;-74
2022/09/24 07:55:21;;;;;;;24.40;10.95;;;11.90;99.90;;;;;;5019498;28;20072;-75
2022/09/24 07:57:51;;;;;;;22.70;10.13;;;12.00;99.90;;;;;;5037355;28;20040;-75
2022/09/24 08:00:20;;;;;;;23.75;10.45;;;12.20;99.90;;;;;;5037297;28;20045;-75
2022/09/24 08:02:48;;;;;;;29.15;10.80;;;12.30;99.90;;;;;;5053623;28;20041;-75
2022/09/24 08:05:16;;;;;;;21.67;10.27;;;12.40;99.90;;;;;;5054489;28;20076;-75
2022/09/24 08:07:52;;;;;;;27.40;10.15;;;12.50;99.90;;;;;;5053452;28;20375;-75
2022/09/24 08:10:20;;;;;;;23.35;9.63;;;12.70;99.90;;;;;;5054675;28;20379;-74
2022/09/24 08:12:48;;;;;;;23.83;9.32;;;12.80;99.90;;;;;;5054551;28;20045;-75
2022/09/24 08:15:16;;;;;;;21.75;10.60;;;13.20;99.90;;;;;;5036092;28;20053;-74
2022/09/24 08:17:43;;;;;;;20.55;9.63;;;12.90;99.90;;;;;;5020894;28;20048;-75
2022/09/24 08:20:11;;;;;;;25.98;10.65;;;12.90;99.90;;;;;;5054590;28;20056;-75
2022/09/24 08:22:39;;;;;;;27.48;10.80;;;12.90;99.90;;;;;;5053595;28;20049;-75
2022/09/24 08:25:07;;;;;;;22.33;10.27;;;13.00;99.90;;;;;;5037670;28;20045;-75
2022/09/24 08:27:37;;;;;;;21.10;11.27;;;13.00;99.90;;;;;;5053813;28;20056;-75
2022/09/24 08:30:06;;;;;;;24.50;10.48;;;13.10;99.90;;;;;;5037364;28;20049;-75
2022/09/24 08:32:33;;;;;;;22.67;10.60;;;13.20;99.90;;;;;;5054404;28;20091;-75
2022/09/24 08:35:01;;;;;;;31.25;11.52;;;13.30;99.90;;;;;;5035100;28;20049;-75
2022/09/24 08:37:30;;;;;;;26.50;11.77;;;13.30;99.90;;;;;;5054186;28;20353;-75
2022/09/24 08:39:58;;;;;;;23.23;12.18;;;13.40;99.90;;;;;;5054430;28;20059;-75
2022/09/24 08:42:48;;;;;;;28.60;11.55;;;13.40;99.90;;;;;;5019546;28;20048;-76
2022/09/24 08:48:18;;;;;;;23.20;11.75;;;13.40;99.90;;;;;;5053842;28;20052;-74
2022/09/24 08:50:59;;;;;;;24.73;11.43;;;13.50;99.90;;;;;;5037225;28;20044;-74
2022/09/24 08:53:48;;;;;;;20.17;9.77;;;13.60;99.90;;;;;;5037107;28;20041;-74
2022/09/24 08:56:24;;;;;;;22.52;10.80;;;13.70;99.90;;;;;;5020388;28;20076;-74
2022/09/24 08:59:09;;;;;;;23.20;11.32;;;13.70;99.90;;;;;;5037213;28;20049;-74
2022/09/24 09:01:54;;;;;;;24.45;10.90;;;13.70;99.90;;;;;;5053317;28;20049;-74
2022/09/24 09:04:52;;;;;;;23.63;10.68;;;13.60;99.90;;;;;;5054115;28;20041;-74
2022/09/24 09:07:43;;;;;;;22.13;9.70;;;13.60;99.90;;;;;;5036034;28;20475;-74
2022/09/24 09:10:16;;;;;;;21.98;9.95;;;13.50;99.90;;;;;;5054317;28;20041;-74
2022/09/24 09:12:47;;;;;;;22.15;9.85;;;13.40;99.90;;;;;;5054143;28;20049;-74
2022/09/24 09:15:28;;;;;;;21.48;8.98;;;13.40;99.90;;;;;;5053483;28;20049;-74
2022/09/24 09:18:11;;;;;;;21.38;8.50;;;13.50;99.90;;;;;;5054337;28;20376;-73
2022/09/24 09:20:42;;;;;;;18.55;8.27;;;13.60;99.90;;;;;;5035762;28;20052;-74
2022/09/24 09:23:18;;;;;;;24.70;7.68;;;13.90;99.90;;;;;;5037216;28;20368;-74
2022/09/24 09:25:51;;;;;;;17.35;6.57;;;14.00;99.90;;;;;;5054242;28;20505;-74
2022/09/24 09:28:20;;;;;;;18.40;6.63;;;14.20;99.90;;;;;;5035327;28;20049;-74
2022/09/24 09:31:07;;;;;;;;;;;14.30;99.90;;;;;;5037113;28;20045;-74
2022/09/24 09:33:58;;;;;;;21.92;6.18;;;13.70;99.90;;;;;;5053993;28;19921;-75
2022/09/24 09:36:48;;;;;;;14.18;5.72;;;14.60;99.90;;;;;;5036975;28;20051;-75
2022/09/24 09:39:38;;;;;;;18.70;6.20;;;14.80;99.90;;;;;;5019627;28;20049;-75
2022/09/24 09:42:30;;;;;;;20.02;6.85;;;14.80;99.90;;;;;;5019261;28;20044;-75
2022/09/24 09:45:14;;;;;;;18.35;6.60;;;14.80;99.90;;;;;;5054146;28;20367;-75
2022/09/24 09:47:52;;;;;;;20.65;6.25;;;14.80;99.90;;;;;;5054965;28;20045;-75
2022/09/24 09:50:31;;;;;;;15.52;5.97;;;14.80;99.90;;;;;;5040836;28;20041;-75
2022/09/24 09:53:00;;;;;;;14.85;5.38;;;14.80;99.90;;;;;;5040155;28;20044;-75
2022/09/24 09:55:34;;;;;;;12.05;5.10;;;14.80;99.90;;;;;;5039023;28;20079;-75
2022/09/24 09:58:32;;;;;;;14.02;4.68;;;17.60;99.90;;;;;;5040514;28;20367;-74
2022/09/24 10:01:14;;;;;;;12.02;3.90;;;14.80;99.90;;;;;;5011399;28;20399;-76
2022/09/24 10:03:50;;;;;;;15.30;3.83;;;14.80;99.90;;;;;;5057270;28;20455;-75
2022/09/24 10:06:30;;;;;;;11.05;3.78;;;14.90;99.90;;;;;;5057702;28;20356;-72
2022/09/24 10:09:18;;;;;;;14.63;3.85;;;14.90;99.90;;;;;;5056242;28;20464;-75
2022/09/24 10:11:53;;;;;;;11.32;2.90;;;14.90;99.90;;;;;;5040767;28;20060;-74
2022/09/24 10:14:21;;;;;;;11.80;3.10;;;;;;;;;;5038528;28;20079;-75
2022/09/24 10:16:53;;;;;;;12.98;3.05;;;15.00;99.90;;;;;;5039636;28;20068;-74
2022/09/24 10:19:23;;;;;;;8.82;2.65;;;15.00;99.90;;;;;;5057135;28;20056;-75
2022/09/24 10:21:53;;;;;;;11.07;2.72;;;15.00;99.90;;;;;;5056246;28;20060;-74
2022/09/24 10:24:24;;;;;;;7.43;2.58;;;15.00;99.90;;;;;;5057174;28;20045;-74
2022/09/24 10:26:52;;;;;;;8.60;2.22;;;14.90;99.90;;;;;;5039618;28;20049;-74
2022/09/24 10:32:25;;;;;;;9.05;2.30;;;15.10;99.90;;;;;;5057251;28;20056;-74
2022/09/24 10:34:57;;;;;;;7.72;2.05;;;15.10;99.90;;;;;;5055915;28;20057;-74
2022/09/24 10:37:25;;;;;;;6.32;1.70;;;15.20;99.90;;;;;;5039423;28;20055;-75
2022/09/24 10:40:00;;;;;;;9.73;2.30;;;15.30;99.90;;;;;;5039422;28;20049;-74
2022/09/24 10:42:29;;;;;;;14.10;2.03;;;15.40;99.90;;;;;;5038120;28;20060;-75
2022/09/24 10:45:02;;;;;;;6.88;1.98;;;15.40;99.90;;;;;;5039376;28;20045;-74
2022/09/24 10:47:47;;;;;;;10.80;1.83;;;15.40;99.90;;;;;;5055285;28;20200;-74
2022/09/24 10:50:28;;;;;;;6.15;1.50;;;15.50;99.90;;;;;;5056320;28;20045;-75
2022/09/24 10:53:29;;;;;;;10.70;1.65;;;15.60;99.90;;;;;;5038964;28;20049;-75
2022/09/24 10:56:00;;;;;;;8.23;1.70;;;15.70;99.90;;;;;;5055084;28;20049;-75
2022/09/24 10:58:32;;;;;;;6.68;1.58;;;15.90;99.90;;;;;;5055265;28;20051;-73
2022/09/24 11:01:11;;;;;;;7.30;1.70;;;16.20;99.90;;;;;;5037906;28;20045;-77
2022/09/24 11:04:19;;;;;;;8.63;1.70;;;16.50;99.90;;;;;;5038923;28;20045;-74
2022/09/24 11:07:23;;;;;;;11.27;1.80;;;16.80;99.90;;;;;;5055974;28;20451;-72
2022/09/24 11:10:00;;;;;;;6.75;1.40;;;16.90;99.80;;;;;;5055939;28;20040;-74
2022/09/24 11:12:37;;;;;;;6.68;1.52;;;17.00;99.90;;;;;;5055857;28;20037;-74
2022/09/24 11:15:19;;;;;;;5.97;1.40;;;17.20;99.90;;;;;;5054755;28;20055;-74
2022/09/24 11:18:30;;;;;;;9.45;1.50;;;17.30;99.10;;;;;;5038742;28;20048;-73
2022/09/24 11:21:24;;;;;;;6.80;1.23;;;17.30;98.10;;;;;;5037592;28;20056;-74
2022/09/24 11:23:57;;;;;;;7.97;1.52;;;17.40;98.20;;;;;;5022542;28;20468;-74
2022/09/24 11:26:27;;;;;;;7.00;1.45;;;;;;;;;;5038523;28;20396;-73
2022/09/24 11:29:25;;;;;;;7.18;1.27;;;17.70;96.50;;;;;;5054676;28;20048;-72
2022/09/24 11:32:15;;;;;;;7.20;1.30;;;17.90;96.70;;;;;;5055401;28;20067;-73
2022/09/24 11:34:49;;;;;;;6.35;1.40;;;18.30;95.70;;;;;;5037698;28;20049;-72
2022/09/24 11:37:38;;;;;;;10.13;1.20;;;18.30;95.90;;;;;;5051908;28;20052;-73
2022/09/24 11:40:27;;;;;;;4.47;1.23;;;18.30;94.70;;;;;;5037198;28;20053;-74
2022/09/24 11:43:11;;;;;;;7.93;1.52;;;18.20;95.30;;;;;;5054551;28;20056;-73
2022/09/24 11:45:51;;;;;;;7.75;1.50;;;18.10;94.80;;;;;;5054685;28;20063;-74
2022/09/24 11:48:56;;;;;;;6.63;1.42;;;18.10;95.20;;;;;;5036545;28;20045;-73
2022/09/24 11:51:55;;;;;;;4.07;1.10;;;18.20;94.60;;;;;;5035804;28;20049;-72
2022/09/24 11:54:25;;;;;;;7.43;1.30;;;18.20;93.80;;;;;;5034072;28;20053;-73
2022/09/24 11:57:44;;;;;;;6.25;1.20;;;18.00;93.20;;;;;;5018242;28;20037;-72
2022/09/24 12:00:19;;;;;;;5.15;1.00;;;17.80;93.10;;;;;;4995091;28;20064;-72
2022/09/24 12:03:09;;;;;;;4.75;1.35;;;17.70;93.80;;;;;;5033241;28;20053;-73
2022/09/24 12:05:43;;;;;;;7.72;1.70;;;17.80;94.40;;;;;;5018223;28;20050;-72
2022/09/24 12:08:19;;;;;;;6.72;1.30;;;18.00;94.00;;;;;;5017206;28;20510;-72
2022/09/24 12:11:27;;;;;;;5.25;1.20;;;18.10;94.10;;;;;;5035146;28;20045;-73
2022/09/24 12:14:12;;;;;;;7.25;1.30;;;16.80;93.00;;;;;;5014939;28;20061;-72
2022/09/24 12:16:43;;;;;;;8.48;1.30;;;18.10;93.00;;;;;;5034336;28;20057;-73
2022/09/24 12:19:16;;;;;;;4.72;1.40;;;18.00;93.20;;;;;;5017593;28;20045;-73
2022/09/24 12:21:47;;;;;;;8.40;1.30;;;17.90;93.30;;;;;;5033967;28;20045;-73
2022/09/24 12:24:29;;;;;;;5.03;1.20;;;17.90;92.90;;;;;;5017778;28;20053;-73
2022/09/24 12:27:00;;;;;;;5.30;1.10;;;18.00;93.00;;;;;;5035079;28;20068;-73
2022/09/24 12:32:54;;;;;;;9.25;1.10;;;18.40;91.50;;;;;;5034573;28;20053;-73
2022/09/24 12:35:47;;;;;;;5.80;1.00;;;18.40;91.80;;;;;;5033548;28;20064;-72
2022/09/24 12:38:22;;;;;;;4.35;1.00;;;18.50;92.00;;;;;;5017175;28;20053;-72
2022/09/24 12:41:11;;;;;;;5.15;0.98;;;18.60;91.80;;;;;;5016521;28;20045;-72
2022/09/24 12:43:49;;;;;;;4.38;0.88;;;18.60;91.50;;;;;;5034424;28;20053;-72
2022/09/24 12:46:19;;;;;;;;;;;18.60;90.70;;;;;;5035146;28;20052;-73
2022/09/24 12:48:48;;;;;;;5.93;0.98;;;18.50;89.40;;;;;;5046212;28;19921;-72
2022/09/24 12:51:21;;;;;;;3.65;0.98;;;18.50;90.50;;;;;;5021161;28;20049;-72
2022/09/24 12:54:26;;;;;;;3.90;0.88;;;18.50;90.80;;;;;;5037546;28;20344;-72
2022/09/24 12:57:19;;;;;;;5.82;1.00;;;18.70;90.70;;;;;;5054442;28;20056;-72
2022/09/24 12:59:53;;;;;;;3.60;0.90;;;18.80;90.20;;;;;;5037911;28;20068;-73
2022/09/24 13:02:23;;;;;;;5.25;1.00;;;18.70;90.40;;;;;;5053626;28;20041;-72
2022/09/24 13:05:26;;;;;;;2.60;0.82;;;18.80;90.50;;;;;;5055053;28;20053;-72
2022/09/24 13:08:00;;;;;;;5.28;1.00;;;18.00;87.60;;;;;;5036543;28;20049;-72
2022/09/24 13:10:34;;;;;;;6.32;0.85;;;18.80;87.10;;;;;;5054634;28;20341;-72
2022/09/24 13:13:34;;;;;;;4.65;0.80;;;18.70;88.10;;;;;;5054989;28;20041;-72
2022/09/24 13:16:16;;;;;;;6.15;0.70;;;18.70;87.80;;;;;;5053409;28;20049;-72
2022/09/24 13:18:53;;;;;;;4.93;1.05;;;18.60;86.70;;;;;;5020739;28;20339;-72
2022/09/24 13:21:26;;;;;;;3.58;0.63;;;18.30;86.50;;;;;;5035857;28;20045;-72
2022/09/24 13:23:54;;;;;;;3.47;0.70;;;21.00;88.70;;;;;;5040885;28;20045;-72